createdAt,value
2022-12-05T00:01:45.339Z,1.50
2022-12-05T00:04:14.921Z,1.35
2022-12-05T00:06:43.587Z,1.85
2022-12-05T00:09:14.041Z,1.08
2022-12-05T00:11:44.809Z,0.95
2022-12-05T00:14:14.455Z,1.05
2022-12-05T00:16:43.867Z,2.60
2022-12-05T00:19:15.904Z,1.48
2022-12-05T00:21:44.086Z,1.88
2022-12-05T00:24:15.560Z,1.08
2022-12-05T00:26:43.803Z,0.70
2022-12-05T00:29:12.101Z,1.77
2022-12-05T00:31:39.916Z,0.65
2022-12-05T00:34:07.955Z,1.70
2022-12-05T00:36:36.926Z,0.70
2022-12-05T00:39:10.548Z,0.85
2022-12-05T00:41:38.914Z,1.25
2022-12-05T00:44:07.390Z,1.33
2022-12-05T00:46:36.343Z,0.90
2022-12-05T00:49:07.543Z,2.85
2022-12-05T00:51:39.989Z,1.20
2022-12-05T00:54:12.910Z,1.02
2022-12-05T00:56:41.114Z,1.52
2022-12-05T00:59:12.844Z,1.02
2022-12-05T01:01:42.757Z,0.95
2022-12-05T01:04:17.617Z,0.82
2022-12-05T01:06:46.011Z,1.75
2022-12-05T01:09:17.668Z,0.88
2022-12-05T01:11:45.768Z,1.70
2022-12-05T01:14:16.959Z,2.10
2022-12-05T01:16:47.924Z,1.58
2022-12-05T01:19:29.739Z,1.00
2022-12-05T01:21:58.665Z,0.85
2022-12-05T01:24:28.089Z,0.93
2022-12-05T01:26:56.490Z,1.50
2022-12-05T01:29:26.302Z,1.42
2022-12-05T01:31:55.129Z,0.93
2022-12-05T01:34:23.498Z,0.70
2022-12-05T01:36:51.242Z,1.20
2022-12-05T01:39:19.319Z,1.10
2022-12-05T01:41:49.658Z,1.27
2022-12-05T01:44:17.442Z,1.35
2022-12-05T01:46:51.072Z,0.70
2022-12-05T01:49:33.981Z,1.17
2022-12-05T01:52:23.705Z,2.70
2022-12-05T01:54:56.544Z,1.30
2022-12-05T01:57:25.439Z,0.77
2022-12-05T02:00:00.563Z,1.55
2022-12-05T02:02:31.915Z,1.20
2022-12-05T02:05:25.558Z,0.73
2022-12-05T02:07:54.589Z,0.98
2022-12-05T02:10:22.660Z,3.33
2022-12-05T02:12:51.456Z,0.93
2022-12-05T02:15:36.007Z,1.05
2022-12-05T02:18:38.845Z,1.67
2022-12-05T02:21:51.053Z,1.95
2022-12-05T02:24:42.569Z,0.63
2022-12-05T02:27:10.481Z,0.68
2022-12-05T02:30:00.885Z,0.77
2022-12-05T02:32:44.190Z,3.45
2022-12-05T02:35:41.635Z,2.50
2022-12-05T02:38:46.628Z,0.70
2022-12-05T02:41:34.309Z,0.70
2022-12-05T02:44:23.513Z,0.70
2022-12-05T02:46:54.198Z,1.85
2022-12-05T02:49:31.848Z,0.77
2022-12-05T02:52:02.565Z,0.90
2022-12-05T02:54:43.046Z,1.35
2022-12-05T02:57:13.469Z,1.80
2022-12-05T02:59:41.420Z,1.10
2022-12-05T03:02:22.640Z,1.10
2022-12-05T03:04:50.801Z,1.75
2022-12-05T03:07:22.336Z,0.65
2022-12-05T03:10:03.846Z,0.60
2022-12-05T03:12:38.694Z,0.95
2022-12-05T03:15:22.742Z,0.60
2022-12-05T03:18:38.629Z,0.50
2022-12-05T03:21:26.136Z,0.75
2022-12-05T03:24:01.471Z,0.77
2022-12-05T03:26:50.499Z,0.70
2022-12-05T03:29:26.255Z,0.88
2022-12-05T03:32:14.293Z,1.00
2022-12-05T03:35:12.702Z,0.82
2022-12-05T03:38:38.018Z,0.63
2022-12-05T03:41:26.022Z,0.65
2022-12-05T03:44:03.752Z,0.50
2022-12-05T03:46:37.847Z,1.15
2022-12-05T03:49:27.968Z,1.77
2022-12-05T03:52:09.519Z,0.55
2022-12-05T03:55:07.694Z,1.30
2022-12-05T03:57:44.169Z,1.48
2022-12-05T04:00:18.964Z,1.35
2022-12-05T04:03:07.536Z,1.02
2022-12-05T04:05:51.247Z,0.80
2022-12-05T04:08:51.648Z,0.75
2022-12-05T04:11:23.407Z,0.98
2022-12-05T04:14:19.807Z,1.23
2022-12-05T04:17:03.430Z,3.20
2022-12-05T04:20:02.171Z,1.40
2022-12-05T04:22:31.859Z,1.13
2022-12-05T04:25:21.209Z,1.02
2022-12-05T04:28:36.259Z,0.93
2022-12-05T04:31:41.021Z,1.75
2022-12-05T04:34:14.702Z,0.90
2022-12-05T04:36:47.123Z,1.75
2022-12-05T04:39:27.896Z,0.45
2022-12-05T04:42:19.936Z,1.65
2022-12-05T04:44:55.739Z,1.10
2022-12-05T04:47:30.855Z,0.50
2022-12-05T04:50:00.803Z,1.20
2022-12-05T04:52:31.355Z,2.78
2022-12-05T04:55:17.048Z,2.28
2022-12-05T04:58:11.357Z,2.15
2022-12-05T05:01:03.727Z,1.50
2022-12-05T05:04:02.725Z,1.23
2022-12-05T05:06:30.798Z,1.05
2022-12-05T05:08:59.180Z,1.00
2022-12-05T05:11:30.648Z,1.02
2022-12-05T05:13:58.612Z,1.10
2022-12-05T05:16:39.474Z,0.93
2022-12-05T05:19:09.424Z,1.40
2022-12-05T05:21:41.362Z,2.88
2022-12-05T05:24:11.117Z,1.80
2022-12-05T05:26:42.497Z,0.93
2022-12-05T05:29:12.118Z,1.10
2022-12-05T05:31:41.713Z,1.00
2022-12-05T05:34:11.299Z,1.55
2022-12-05T05:36:39.954Z,1.27
2022-12-05T05:39:12.427Z,2.13
2022-12-05T05:41:40.819Z,1.48
2022-12-05T05:44:08.453Z,1.05
2022-12-05T05:46:37.145Z,0.82
2022-12-05T05:49:05.198Z,1.13
2022-12-05T05:51:33.421Z,0.73
2022-12-05T05:54:01.195Z,0.85
2022-12-05T05:56:29.576Z,0.82
2022-12-05T05:59:01.198Z,1.95
2022-12-05T06:01:30.121Z,1.05
2022-12-05T06:03:58.774Z,1.23
2022-12-05T06:06:27.079Z,4.38
2022-12-05T06:08:55.207Z,0.85
2022-12-05T06:11:26.921Z,1.03
2022-12-05T06:14:03.778Z,1.20
2022-12-05T06:16:33.519Z,1.30
2022-12-05T06:21:29.836Z,1.40
2022-12-05T06:24:00.134Z,1.83
2022-12-05T06:26:28.091Z,2.25
2022-12-05T06:28:55.700Z,2.03
2022-12-05T06:31:28.502Z,1.42
2022-12-05T06:33:56.156Z,1.27
2022-12-05T06:36:25.192Z,2.38
2022-12-05T06:38:52.795Z,2.15
2022-12-05T06:41:21.847Z,4.50
2022-12-05T06:43:49.518Z,1.70
2022-12-05T06:46:17.419Z,1.55
2022-12-05T06:48:45.533Z,1.50
2022-12-05T06:51:17.368Z,2.72
2022-12-05T06:53:45.595Z,3.13
2022-12-05T06:56:17.591Z,2.05
2022-12-05T06:58:48.525Z,1.77
2022-12-05T07:01:39.278Z,2.45
2022-12-05T07:04:23.998Z,3.10
2022-12-05T07:06:54.530Z,3.05
2022-12-05T07:09:44.886Z,1.48
2022-12-05T07:12:17.564Z,1.48
2022-12-05T07:14:48.124Z,1.48
2022-12-05T07:17:19.025Z,1.17
2022-12-05T07:19:50.638Z,1.80
2022-12-05T07:22:20.541Z,1.80
2022-12-05T07:27:18.429Z,1.23
2022-12-05T07:29:48.248Z,1.75
2022-12-05T07:32:16.233Z,6.15
2022-12-05T07:34:43.724Z,1.70
2022-12-05T07:37:13.027Z,2.10
2022-12-05T07:39:40.511Z,2.80
2022-12-05T07:42:08.397Z,5.43
2022-12-05T07:44:36.030Z,4.40
2022-12-05T07:47:03.950Z,2.95
2022-12-05T07:49:31.393Z,3.63
2022-12-05T07:52:01.360Z,1.48
2022-12-05T07:54:28.855Z,1.60
2022-12-05T07:56:56.658Z,1.83
2022-12-05T07:59:24.247Z,2.97
2022-12-05T08:01:52.230Z,1.80
2022-12-05T08:04:19.973Z,2.25
2022-12-05T08:06:47.846Z,4.43
2022-12-05T08:09:15.433Z,7.95
2022-12-05T08:11:46.963Z,4.40
2022-12-05T08:14:17.271Z,3.90
2022-12-05T08:16:45.129Z,2.47
2022-12-05T08:19:17.165Z,2.88
2022-12-05T08:21:45.309Z,4.40
2022-12-05T08:24:13.173Z,2.90
2022-12-05T08:26:42.172Z,4.68
2022-12-05T08:29:15.353Z,3.35
2022-12-05T08:31:50.163Z,1.65
2022-12-05T08:34:20.090Z,2.42
2022-12-05T08:36:48.213Z,1.75
2022-12-05T08:39:19.701Z,2.35
2022-12-05T08:41:49.028Z,2.10
2022-12-05T08:44:17.255Z,1.95
2022-12-05T08:46:49.046Z,4.53
2022-12-05T08:49:17.516Z,2.40
2022-12-05T08:51:46.170Z,10.30
2022-12-05T08:54:14.393Z,10.95
2022-12-05T08:56:42.472Z,11.38
2022-12-05T08:59:10.048Z,11.10
2022-12-05T09:01:39.593Z,2.92
2022-12-05T09:04:08.443Z,4.70
2022-12-05T09:06:37.295Z,5.25
2022-12-05T09:09:09.051Z,5.43
2022-12-05T09:11:41.551Z,4.43
2022-12-05T09:14:09.214Z,1.77
2022-12-05T09:16:39.582Z,4.95
2022-12-05T09:19:17.742Z,2.83
2022-12-05T09:21:45.728Z,2.17
2022-12-05T09:24:14.415Z,2.03
2022-12-05T09:26:44.578Z,4.95
2022-12-05T09:29:17.245Z,3.45
2022-12-05T09:31:49.993Z,2.92
2022-12-05T09:34:20.101Z,1.90
2022-12-05T09:36:55.751Z,1.95
2022-12-05T09:39:26.209Z,4.15
2022-12-05T09:42:24.009Z,2.92
2022-12-05T09:45:18.234Z,3.13
2022-12-05T09:48:12.191Z,3.08
2022-12-05T09:51:03.214Z,4.30
2022-12-05T09:53:38.835Z,4.80
2022-12-05T09:56:32.638Z,2.72
2022-12-05T09:59:05.696Z,2.92
2022-12-05T10:01:58.332Z,3.78
2022-12-05T10:04:33.576Z,3.55
2022-12-05T10:07:12.324Z,2.83
2022-12-05T10:10:20.335Z,2.40
2022-12-05T10:12:57.963Z,8.20
2022-12-05T10:15:45.555Z,5.40
2022-12-05T10:18:39.729Z,4.97
2022-12-05T10:21:32.039Z,3.17
2022-12-05T10:24:27.171Z,3.17
2022-12-05T10:27:02.455Z,3.38
2022-12-05T10:29:52.738Z,3.00
2022-12-05T10:32:30.341Z,4.10
2022-12-05T10:35:15.401Z,6.50
2022-12-05T10:37:58.769Z,5.10
2022-12-05T10:40:41.521Z,3.13
2022-12-05T10:43:16.649Z,2.80
2022-12-05T10:45:47.623Z,3.10
2022-12-05T10:48:20.195Z,4.10
2022-12-05T10:50:57.285Z,2.92
2022-12-05T10:53:49.563Z,7.50
2022-12-05T10:56:35.959Z,5.32
2022-12-05T10:59:05.913Z,4.88
2022-12-05T11:01:36.790Z,3.55
2022-12-05T11:04:22.732Z,6.03
2022-12-05T11:07:00.651Z,7.55
2022-12-05T11:09:39.000Z,4.15
2022-12-05T11:12:09.350Z,8.90
2022-12-05T11:14:37.523Z,6.65
2022-12-05T11:17:06.835Z,5.15
2022-12-05T11:19:38.247Z,4.65
2022-12-05T11:22:09.521Z,8.45
2022-12-05T11:24:39.536Z,8.88
2022-12-05T11:27:16.062Z,4.80
2022-12-05T11:30:13.685Z,3.95
2022-12-05T11:32:41.215Z,4.68
2022-12-05T11:35:26.711Z,9.85
2022-12-05T11:38:03.612Z,6.63
2022-12-05T11:40:54.366Z,5.28
2022-12-05T11:43:53.740Z,4.97
2022-12-05T11:46:34.029Z,4.80
2022-12-05T11:49:44.966Z,4.50
2022-12-05T11:52:28.758Z,3.80
2022-12-05T11:55:51.386Z,4.97
2022-12-05T11:58:42.724Z,3.85
2022-12-05T12:01:40.726Z,4.72
2022-12-05T12:04:52.000Z,6.47
2022-12-05T12:07:55.458Z,6.68
2022-12-05T12:10:46.026Z,5.22
2022-12-05T12:13:34.099Z,6.10
2022-12-05T12:16:54.241Z,10.38
2022-12-05T12:19:45.557Z,9.82
2022-12-05T12:22:36.693Z,11.48
2022-12-05T12:25:28.693Z,12.50
2022-12-05T12:28:27.385Z,12.88
2022-12-05T12:31:18.031Z,13.00
2022-12-05T12:34:17.374Z,15.68
2022-12-05T12:37:14.321Z,17.75
2022-12-05T12:40:15.317Z,17.98
2022-12-05T12:43:44.746Z,24.45
2022-12-05T12:46:36.191Z,14.90
2022-12-05T12:49:40.800Z,12.75
2022-12-05T12:52:23.012Z,8.23
2022-12-05T12:55:21.406Z,12.30
2022-12-05T12:58:01.459Z,18.08
2022-12-05T13:01:01.708Z,22.88
2022-12-05T13:03:49.884Z,19.77
2022-12-05T13:06:49.163Z,14.00
2022-12-05T13:09:51.874Z,9.70
2022-12-05T13:12:27.443Z,16.92
2022-12-05T13:15:07.753Z,35.33
2022-12-05T13:17:36.118Z,34.28
2022-12-05T13:20:04.785Z,37.85
2022-12-05T13:22:32.565Z,23.80
2022-12-05T13:25:00.625Z,35.97
2022-12-05T13:27:28.810Z,19.80
2022-12-05T13:30:03.225Z,19.52
2022-12-05T13:32:42.591Z,27.13
2022-12-05T13:35:38.114Z,22.27
2022-12-05T13:38:24.520Z,17.63
2022-12-05T13:41:12.638Z,23.38
2022-12-05T13:44:00.594Z,13.48
2022-12-05T13:46:39.411Z,12.52
2022-12-05T13:49:50.027Z,13.43
2022-12-05T13:52:29.005Z,13.13
2022-12-05T13:55:30.789Z,15.80
2022-12-05T13:58:20.838Z,12.10
2022-12-05T14:00:52.459Z,10.77
2022-12-05T14:03:35.458Z,11.13
2022-12-05T14:06:04.296Z,17.17
2022-12-05T14:08:32.112Z,18.10
2022-12-05T14:10:59.655Z,22.83
2022-12-05T14:13:27.487Z,25.55
2022-12-05T14:16:16.498Z,14.98
2022-12-05T14:21:50.533Z,17.48
2022-12-05T14:24:53.201Z,14.40
2022-12-05T14:28:10.803Z,10.80
2022-12-05T14:31:07.241Z,8.57
2022-12-05T14:33:35.137Z,8.68
2022-12-05T14:36:18.926Z,7.32
2022-12-05T14:38:46.766Z,7.05
2022-12-05T14:41:33.842Z,7.53
2022-12-05T14:44:08.453Z,9.45
2022-12-05T14:46:36.966Z,8.68
2022-12-05T14:49:56.377Z,6.78
2022-12-05T14:52:27.823Z,7.97
2022-12-05T14:55:12.476Z,4.05
2022-12-05T14:57:49.167Z,9.80
2022-12-05T15:00:23.303Z,6.85
2022-12-05T15:02:55.688Z,6.20
2022-12-05T15:05:31.522Z,7.15
2022-12-05T15:08:01.719Z,7.63
2022-12-05T15:10:34.854Z,8.65
2022-12-05T15:13:27.919Z,9.30
2022-12-05T15:16:16.095Z,14.05
2022-12-05T15:18:51.810Z,7.23
2022-12-05T15:21:53.010Z,13.73
2022-12-05T15:24:21.170Z,13.02
2022-12-05T15:26:58.734Z,12.48
2022-12-05T15:29:30.532Z,12.43
2022-12-05T15:31:59.127Z,10.57
2022-12-05T15:34:45.028Z,8.32
2022-12-05T15:37:40.314Z,9.60
2022-12-05T15:40:08.315Z,15.40
2022-12-05T15:42:44.953Z,16.67
2022-12-05T15:45:15.696Z,10.25
2022-12-05T15:47:49.300Z,9.07
2022-12-05T15:50:43.355Z,12.25
2022-12-05T15:53:41.108Z,13.05
2022-12-05T15:56:20.666Z,10.63
2022-12-05T15:58:51.392Z,11.10
2022-12-05T16:01:28.981Z,9.63
2022-12-05T16:04:08.079Z,15.07
2022-12-05T16:06:51.754Z,10.32
2022-12-05T16:09:28.740Z,9.68
2022-12-05T16:12:25.617Z,10.45
2022-12-05T16:14:59.888Z,9.93
2022-12-05T16:17:38.012Z,9.75
2022-12-05T16:20:18.756Z,13.95
2022-12-05T16:22:50.802Z,10.65
2022-12-05T16:25:25.668Z,12.38
2022-12-05T16:28:07.609Z,12.02
2022-12-05T16:30:37.429Z,8.68
2022-12-05T16:33:15.599Z,12.68
2022-12-05T16:35:46.075Z,12.57
2022-12-05T16:38:16.730Z,10.60
2022-12-05T16:40:50.261Z,12.70
2022-12-05T16:43:32.450Z,11.80
2022-12-05T16:46:16.404Z,11.05
2022-12-05T16:49:09.129Z,9.77
2022-12-05T16:51:53.406Z,11.55
2022-12-05T16:54:21.580Z,13.20
2022-12-05T16:56:49.444Z,10.15
2022-12-05T16:59:43.807Z,11.63
2022-12-05T17:02:19.685Z,16.83
2022-12-05T17:04:47.843Z,17.58
2022-12-05T17:07:15.521Z,12.65
2022-12-05T17:09:43.554Z,14.75
2022-12-05T17:12:21.605Z,16.77
2022-12-05T17:14:49.836Z,19.92
2022-12-05T17:17:18.391Z,21.67
2022-12-05T17:19:46.594Z,14.95
2022-12-05T17:22:16.256Z,16.75
2022-12-05T17:24:44.785Z,15.07
2022-12-05T17:27:13.270Z,9.55
2022-12-05T17:29:41.394Z,14.82
2022-12-05T17:32:11.600Z,10.70
2022-12-05T17:34:39.583Z,10.75
2022-12-05T17:37:07.254Z,13.57
2022-12-05T17:39:35.384Z,11.15
2022-12-05T17:42:05.053Z,13.65
2022-12-05T17:44:33.419Z,15.93
2022-12-05T17:47:07.466Z,11.27
2022-12-05T17:49:36.554Z,10.10
2022-12-05T17:54:53.274Z,8.88
2022-12-05T17:57:21.011Z,16.30
2022-12-05T17:59:49.193Z,8.75
2022-12-05T18:02:19.042Z,9.90
2022-12-05T18:04:47.253Z,10.82
2022-12-05T18:07:15.279Z,11.98
2022-12-05T18:09:43.724Z,14.50
2022-12-05T18:12:11.523Z,11.40
2022-12-05T18:14:40.576Z,13.95
2022-12-05T18:17:08.254Z,12.70
2022-12-05T18:19:36.368Z,11.82
2022-12-05T18:22:04.986Z,11.18
2022-12-05T18:24:33.094Z,15.88
2022-12-05T18:27:00.774Z,10.57
2022-12-05T18:29:28.743Z,9.82
2022-12-05T18:31:56.342Z,9.57
2022-12-05T18:34:24.570Z,12.25
2022-12-05T18:36:52.246Z,12.68
2022-12-05T18:39:21.149Z,12.77
2022-12-05T18:41:48.789Z,13.90
2022-12-05T18:44:16.873Z,11.63
2022-12-05T18:46:44.557Z,16.73
2022-12-05T18:49:13.623Z,12.98
2022-12-05T18:51:41.933Z,12.30
2022-12-05T18:54:09.912Z,9.48
2022-12-05T18:56:40.108Z,16.15
2022-12-05T18:59:20.900Z,11.13
2022-12-05T19:01:50.260Z,15.27
2022-12-05T19:04:21.544Z,13.35
2022-12-05T19:06:55.929Z,12.40
2022-12-05T19:09:27.782Z,11.95
2022-12-05T19:11:59.042Z,11.20
2022-12-05T19:14:33.093Z,14.95
2022-12-05T19:17:02.297Z,8.65
2022-12-05T19:19:30.834Z,16.42
2022-12-05T19:21:59.470Z,13.80
2022-12-05T19:24:27.451Z,8.88
2022-12-05T19:26:55.035Z,10.52
2022-12-05T19:29:23.455Z,6.82
2022-12-05T19:31:51.186Z,11.57
2022-12-05T19:34:19.483Z,10.40
2022-12-05T19:36:47.231Z,9.13
2022-12-05T19:39:19.024Z,9.90
2022-12-05T19:41:47.283Z,9.73
2022-12-05T19:44:15.831Z,8.23
2022-12-05T19:46:43.887Z,9.68
2022-12-05T19:49:14.749Z,8.80
2022-12-05T19:51:43.387Z,6.47
2022-12-05T19:54:13.865Z,8.77
2022-12-05T19:56:41.631Z,13.50
2022-12-05T19:59:12.984Z,9.30
2022-12-05T20:01:41.563Z,7.68
2022-12-05T20:04:13.701Z,10.60
2022-12-05T20:06:50.110Z,8.30
2022-12-05T20:09:21.563Z,7.28
2022-12-05T20:11:55.174Z,7.35
2022-12-05T20:14:25.786Z,6.57
2022-12-05T20:16:54.067Z,7.60
2022-12-05T20:19:24.127Z,8.07
2022-12-05T20:24:19.778Z,10.40
2022-12-05T20:26:47.480Z,9.27
2022-12-05T20:29:15.395Z,9.48
2022-12-05T20:31:43.999Z,8.57
2022-12-05T20:34:14.857Z,8.52
2022-12-05T20:36:43.498Z,8.93
2022-12-05T20:39:15.970Z,13.13
2022-12-05T20:41:44.833Z,12.60
2022-12-05T20:44:16.089Z,13.27
2022-12-05T20:46:45.824Z,8.45
2022-12-05T20:49:13.959Z,6.47
2022-12-05T20:51:45.355Z,10.02
2022-12-05T20:54:16.772Z,19.92
2022-12-05T20:56:46.350Z,10.88
2022-12-05T20:59:15.404Z,10.70
2022-12-05T21:04:12.464Z,10.15
2022-12-05T21:06:43.061Z,13.10
2022-12-05T21:09:16.269Z,10.20
2022-12-05T21:11:45.709Z,10.48
2022-12-05T21:14:13.772Z,12.10
2022-12-05T21:16:41.635Z,13.93
2022-12-05T21:19:10.115Z,11.80
2022-12-05T21:21:38.019Z,11.10
2022-12-05T21:24:08.469Z,7.63
2022-12-05T21:26:38.764Z,7.88
2022-12-05T21:31:39.706Z,10.75
2022-12-05T21:34:15.297Z,9.23
2022-12-05T21:36:45.005Z,9.52
2022-12-05T21:39:14.004Z,9.63
2022-12-05T21:41:41.716Z,6.70
2022-12-05T21:44:09.680Z,10.73
2022-12-05T21:46:37.525Z,6.05
2022-12-05T21:49:05.369Z,8.48
2022-12-05T21:51:33.448Z,12.25
2022-12-05T21:54:01.356Z,9.82
2022-12-05T21:56:29.523Z,10.50
2022-12-05T21:58:57.142Z,10.75
2022-12-05T22:01:28.537Z,15.43
2022-12-05T22:04:02.144Z,8.13
2022-12-05T22:06:34.347Z,8.95
2022-12-05T22:09:12.845Z,10.88
2022-12-05T22:11:45.347Z,17.98
2022-12-05T22:14:13.185Z,9.52
2022-12-05T22:16:41.274Z,10.50
2022-12-05T22:19:09.010Z,15.40
2022-12-05T22:21:36.914Z,7.60
2022-12-05T22:24:04.839Z,8.55
2022-12-05T22:26:32.862Z,7.32
2022-12-05T22:29:00.482Z,8.23
2022-12-05T22:31:29.542Z,10.55
2022-12-05T22:33:57.080Z,9.43
2022-12-05T22:36:25.331Z,11.90
2022-12-05T22:38:52.947Z,10.95
2022-12-05T22:41:24.347Z,9.73
2022-12-05T22:44:00.375Z,14.63
2022-12-05T22:46:30.501Z,8.32
2022-12-05T22:48:58.844Z,8.52
2022-12-05T22:51:27.691Z,13.77
2022-12-05T22:53:56.962Z,11.32
2022-12-05T22:56:27.791Z,13.00
2022-12-05T22:59:01.082Z,8.57
2022-12-05T23:01:34.685Z,8.40
2022-12-05T23:04:10.791Z,6.55
2022-12-05T23:06:39.217Z,8.30
2022-12-05T23:09:11.070Z,9.63
2022-12-05T23:11:57.584Z,11.68
2022-12-05T23:14:25.603Z,8.38
2022-12-05T23:16:53.139Z,8.05
2022-12-05T23:19:21.820Z,6.82
2022-12-05T23:21:49.456Z,6.78
2022-12-05T23:24:17.341Z,8.73
2022-12-05T23:26:46.145Z,8.52
2022-12-05T23:29:15.003Z,10.80
2022-12-05T23:31:43.609Z,8.05
2022-12-05T23:34:12.532Z,8.17
2022-12-05T23:36:40.453Z,10.30
2022-12-05T23:39:08.342Z,11.52
2022-12-05T23:41:36.271Z,7.45
2022-12-05T23:44:04.965Z,8.17
2022-12-05T23:46:32.635Z,11.13
2022-12-05T23:49:00.823Z,7.63
2022-12-05T23:51:30.752Z,6.93
2022-12-05T23:54:02.214Z,9.73
2022-12-05T23:56:33.393Z,9.82
2022-12-05T23:59:04.421Z,6.43
